Time;durP1;ratioP1;P1;durP2;ratioP2;P2;SDS_P1;SDS_P2;PMS_P1;PMS_P2;Temp;Humidity;BMP_temperature;BMP_pressure;BME280_temperature;BME280_humidity;BME280_pressure;Samples;Min_cycle;Max_cycle;Signal;HPM_P1;HPM_P2
2023/11/25 00:00:21;;;;;;;0.70;0.25;;;2.10;99.90;;;;;;5007922;28;20088;-67
2023/11/25 00:02:48;;;;;;;0.00;0.00;;;2.00;99.90;;;;;;5040467;28;20552;-66
2023/11/25 00:05:14;;;;;;;0.20;0.20;;;2.00;99.90;;;;;;5006544;28;20045;-66
2023/11/25 00:07:40;;;;;;;3.92;0.70;;;2.00;99.90;;;;;;5035507;28;20125;-67
2023/11/25 00:10:07;;;;;;;0.88;0.88;;;2.00;99.90;;;;;;5005076;28;20134;-67
2023/11/25 00:12:34;;;;;;;84.25;48.83;;;2.00;99.90;;;;;;5035262;28;20563;-67
2023/11/25 00:15:00;;;;;;;134.43;74.78;;;1.90;99.90;;;;;;5002003;28;20034;-67
2023/11/25 00:17:28;;;;;;;25.00;14.63;;;1.90;99.90;;;;;;5006858;28;20049;-67
2023/11/25 00:20:00;;;;;;;3.70;1.67;;;2.00;99.90;;;;;;4999229;28;20494;-67
2023/11/25 00:22:26;;;;;;;0.60;0.38;;;2.00;99.90;;;;;;5002495;28;20045;-66
2023/11/25 00:24:52;;;;;;;2.88;0.20;;;1.90;99.90;;;;;;5000607;28;20034;-67
2023/11/25 00:27:18;;;;;;;2.17;0.82;;;1.90;99.90;;;;;;5005061;28;20034;-67
2023/11/25 00:29:44;;;;;;;0.68;0.38;;;1.90;99.90;;;;;;4999559;28;20578;-67
2023/11/25 00:32:10;;;;;;;1.75;0.10;;;1.80;99.90;;;;;;5001251;28;20035;-66
2023/11/25 00:34:36;;;;;;;0.65;0.30;;;1.80;99.90;;;;;;5000415;28;20046;-67
2023/11/25 00:37:03;;;;;;;0.75;0.40;;;1.80;99.90;;;;;;5035909;28;20111;-67
2023/11/25 00:39:29;;;;;;;0.00;0.00;;;1.70;99.90;;;;;;5005064;28;20518;-66
2023/11/25 00:41:55;;;;;;;1.95;0.10;;;1.70;99.90;;;;;;5006112;28;20048;-66
2023/11/25 00:44:21;;;;;;;3.40;0.25;;;1.70;99.90;;;;;;5003533;28;20045;-66
2023/11/25 00:46:47;;;;;;;1.65;0.22;;;1.70;99.90;;;;;;5004762;28;20424;-67
2023/11/25 00:49:15;;;;;;;1.02;0.65;;;1.60;99.90;;;;;;5003746;28;20030;-67
2023/11/25 00:51:42;;;;;;;1.30;0.75;;;1.70;99.90;;;;;;5003251;28;20441;-66
2023/11/25 00:54:08;;;;;;;2.10;0.63;;;1.70;99.90;;;;;;5005570;28;20038;-67
2023/11/25 00:56:35;;;;;;;82.78;46.00;;;1.70;99.90;;;;;;5005340;28;20077;-67
2023/11/25 00:59:01;;;;;;;38.58;23.08;;;1.60;99.90;;;;;;5001610;28;20046;-67
2023/11/25 01:01:26;;;;;;;20.67;10.05;;;1.60;99.90;;;;;;4997564;28;20046;-67
2023/11/25 01:03:52;;;;;;;6.28;0.55;;;1.60;99.90;;;;;;5007263;28;20041;-66
2023/11/25 01:06:18;;;;;;;0.73;0.43;;;1.60;99.90;;;;;;4997953;28;20143;-67
2023/11/25 01:08:44;;;;;;;1.77;0.28;;;1.60;99.90;;;;;;4997022;28;20084;-67
2023/11/25 01:11:10;;;;;;;1.15;0.55;;;1.60;99.90;;;;;;5002967;28;20125;-67
2023/11/25 01:13:36;;;;;;;0.00;0.00;;;1.60;99.90;;;;;;5007822;28;20050;-67
2023/11/25 01:16:02;;;;;;;6.15;0.43;;;1.70;99.90;;;;;;5001291;28;20034;-67
2023/11/25 01:18:28;;;;;;;0.03;0.03;;;1.70;99.90;;;;;;5030114;28;20050;-67
2023/11/25 01:20:55;;;;;;;0.03;0.00;;;1.90;99.90;;;;;;5002928;28;20037;-67
2023/11/25 01:23:25;;;;;;;2.28;0.80;;;2.40;99.90;;;;;;5003284;28;20117;-67
2023/11/25 01:25:51;;;;;;;0.45;0.20;;;2.80;99.90;;;;;;5002319;28;20128;-66
2023/11/25 01:28:17;;;;;;;2.35;0.40;;;3.10;99.90;;;;;;5003902;28;20446;-67
2023/11/25 01:30:43;;;;;;;3.08;0.17;;;3.30;99.90;;;;;;5032677;28;20117;-67
2023/11/25 01:33:09;;;;;;;4.13;0.20;;;3.40;99.90;;;;;;5004518;28;20091;-67
2023/11/25 01:35:35;;;;;;;1.25;0.20;;;3.50;99.90;;;;;;5034648;28;20045;-67
2023/11/25 01:38:01;;;;;;;1.25;0.15;;;3.70;99.90;;;;;;5005713;28;20064;-67
2023/11/25 01:40:27;;;;;;;1.27;0.35;;;3.60;99.90;;;;;;5002108;28;20045;-66
2023/11/25 01:42:57;;;;;;;0.35;0.15;;;3.60;99.90;;;;;;5035086;28;20136;-66
2023/11/25 01:45:24;;;;;;;6.53;0.60;;;3.60;99.90;;;;;;5035881;28;20049;-66
2023/11/25 01:47:52;;;;;;;3.00;0.32;;;3.50;99.90;;;;;;5026340;28;20060;-67
2023/11/25 01:50:19;;;;;;;0.15;0.10;;;3.50;99.90;;;;;;5032957;28;20038;-66
2023/11/25 01:52:46;;;;;;;0.10;0.10;;;3.50;99.90;;;;;;5001770;28;20052;-66
2023/11/25 01:55:13;;;;;;;1.65;0.40;;;3.40;99.90;;;;;;5002749;28;20131;-66
2023/11/25 01:57:39;;;;;;;0.45;0.20;;;3.30;99.90;;;;;;5002653;28;20050;-66
2023/11/25 02:00:07;;;;;;;0.15;0.10;;;3.20;99.90;;;;;;5000686;28;20513;-67
2023/11/25 02:02:37;;;;;;;0.77;0.00;;;3.20;99.90;;;;;;5003218;28;20103;-67
2023/11/25 02:05:03;;;;;;;0.63;0.20;;;3.20;99.90;;;;;;5036443;28;20133;-67
2023/11/25 02:07:29;;;;;;;1.48;0.98;;;3.10;99.90;;;;;;5033780;28;20050;-67
2023/11/25 02:09:55;;;;;;;2.38;0.68;;;3.10;99.90;;;;;;5002761;28;20375;-66
2023/11/25 02:12:21;;;;;;;2.17;0.15;;;3.10;99.90;;;;;;5002545;28;20050;-67
2023/11/25 02:14:48;;;;;;;1.27;0.17;;;3.20;99.90;;;;;;5000465;28;20045;-67
2023/11/25 02:17:16;;;;;;;0.03;0.03;;;3.30;99.90;;;;;;5032056;28;20352;-67
2023/11/25 02:19:43;;;;;;;0.77;0.17;;;3.40;99.90;;;;;;5004058;28;20472;-67
2023/11/25 02:22:10;;;;;;;0.03;0.03;;;3.50;99.90;;;;;;5002063;28;20447;-67
2023/11/25 02:24:37;;;;;;;10.70;0.73;;;3.40;99.90;;;;;;5033268;28;20402;-67
2023/11/25 02:27:04;;;;;;;1.17;0.10;;;3.40;99.90;;;;;;5021091;28;20100;-67
2023/11/25 02:29:31;;;;;;;1.83;0.60;;;3.40;99.90;;;;;;5000768;28;20046;-67
2023/11/25 02:32:02;;;;;;;1.60;0.63;;;3.50;99.90;;;;;;5004127;28;20479;-67
2023/11/25 02:34:29;;;;;;;5.57;0.32;;;3.60;99.90;;;;;;4998882;28;20038;-67
2023/11/25 02:36:55;;;;;;;3.15;0.30;;;3.60;99.90;;;;;;5028676;28;20095;-66
2023/11/25 02:39:22;;;;;;;10.18;0.93;;;3.70;99.90;;;;;;5001438;28;20122;-67
2023/11/25 02:41:52;;;;;;;5.07;0.80;;;3.70;99.90;;;;;;5038793;28;20313;-66
2023/11/25 02:44:19;;;;;;;1.33;0.25;;;3.70;99.90;;;;;;5036919;28;20052;-67
2023/11/25 02:46:46;;;;;;;3.25;0.28;;;3.70;99.90;;;;;;4998651;28;20042;-67
2023/11/25 02:49:12;;;;;;;0.00;0.00;;;3.70;99.90;;;;;;4999454;28;20073;-67
2023/11/25 02:51:46;;;;;;;0.30;0.03;;;3.60;99.90;;;;;;5033830;28;20054;-67
2023/11/25 02:54:11;;;;;;;2.40;0.35;;;3.60;99.90;;;;;;4999908;28;20038;-67
2023/11/25 02:56:37;;;;;;;0.00;0.00;;;3.50;99.90;;;;;;5036371;28;20046;-67
2023/11/25 02:59:03;;;;;;;5.78;0.45;;;3.40;99.90;;;;;;5033757;28;20038;-66
2023/11/25 03:01:30;;;;;;;4.50;0.35;;;3.30;99.90;;;;;;4999039;28;20303;-67
2023/11/25 03:04:00;;;;;;;0.25;0.05;;;3.30;99.90;;;;;;5003887;28;20068;-66
2023/11/25 03:06:26;;;;;;;0.00;0.00;;;3.20;99.90;;;;;;5000845;28;20077;-66
2023/11/25 03:08:55;;;;;;;3.00;0.52;;;3.20;99.90;;;;;;5001497;28;20055;-66
2023/11/25 03:11:21;;;;;;;3.03;0.10;;;3.10;99.90;;;;;;4999881;28;20436;-67
2023/11/25 03:13:47;;;;;;;5.68;0.65;;;3.10;99.90;;;;;;4995546;28;20039;-67
2023/11/25 03:16:14;;;;;;;0.00;0.00;;;3.00;99.90;;;;;;5003059;28;20038;-66
2023/11/25 03:18:39;;;;;;;0.00;0.00;;;2.90;99.90;;;;;;5016775;28;20037;-66
2023/11/25 03:21:09;;;;;;;0.30;0.05;;;2.90;99.90;;;;;;5005648;28;20456;-66
2023/11/25 03:23:36;;;;;;;1.58;0.30;;;2.80;99.90;;;;;;4998663;28;20034;-67
2023/11/25 03:26:05;;;;;;;7.80;1.08;;;2.80;99.90;;;;;;5006775;28;20072;-67
2023/11/25 03:28:32;;;;;;;0.00;0.00;;;2.80;99.90;;;;;;5039968;28;20054;-67
2023/11/25 03:31:03;;;;;;;2.05;0.30;;;2.70;99.90;;;;;;5007129;28;20088;-67
2023/11/25 03:33:29;;;;;;;6.47;0.57;;;2.70;99.90;;;;;;5002623;28;20120;-67
2023/11/25 03:35:56;;;;;;;0.00;0.00;;;2.70;99.90;;;;;;5004761;28;20192;-67
2023/11/25 03:38:22;;;;;;;5.72;0.25;;;2.60;99.90;;;;;;5006190;28;20103;-67
2023/11/25 03:40:48;;;;;;;0.57;0.25;;;2.70;99.90;;;;;;5037620;28;20486;-67
2023/11/25 03:43:14;;;;;;;0.15;0.13;;;2.70;99.90;;;;;;5000995;28;20039;-67
2023/11/25 03:45:40;;;;;;;0.75;0.30;;;2.80;99.90;;;;;;5005220;28;20076;-67
2023/11/25 03:48:06;;;;;;;6.03;0.75;;;2.80;99.90;;;;;;5038054;28;20132;-67
2023/11/25 03:50:32;;;;;;;6.53;0.75;;;2.90;99.90;;;;;;5037142;28;20117;-67
2023/11/25 03:52:57;;;;;;;0.40;0.20;;;3.10;99.90;;;;;;5005102;28;20486;-67
2023/11/25 03:55:23;;;;;;;3.53;0.45;;;3.20;99.90;;;;;;5007981;28;20501;-66
2023/11/25 03:57:49;;;;;;;1.90;0.28;;;3.30;99.90;;;;;;5041172;28;20045;-67
2023/11/25 04:00:15;;;;;;;0.00;0.00;;;3.50;99.90;;;;;;5034004;28;20046;-67
2023/11/25 04:02:43;;;;;;;0.77;0.47;;;3.60;99.90;;;;;;5032919;28;20569;-67
2023/11/25 04:05:09;;;;;;;0.98;0.30;;;3.70;99.90;;;;;;5003485;28;20061;-67
2023/11/25 04:07:35;;;;;;;5.88;0.60;;;3.90;99.90;;;;;;5005773;28;20121;-67
2023/11/25 04:10:12;;;;;;;7.07;0.45;;;3.90;99.90;;;;;;5038341;28;20217;-67
2023/11/25 04:12:41;;;;;;;0.00;0.00;;;4.00;99.90;;;;;;5009734;28;20037;-67
2023/11/25 04:15:10;;;;;;;0.00;0.00;;;4.10;99.90;;;;;;5005685;28;20128;-67
2023/11/25 04:17:36;;;;;;;6.03;0.30;;;4.20;99.90;;;;;;5009578;28;20064;-67
2023/11/25 04:20:03;;;;;;;0.00;0.00;;;4.30;99.90;;;;;;5003375;28;20034;-67
2023/11/25 04:22:29;;;;;;;0.17;0.00;;;4.30;99.90;;;;;;5034564;28;20052;-67
2023/11/25 04:24:55;;;;;;;0.00;0.00;;;4.30;99.90;;;;;;5036612;28;20482;-66
2023/11/25 04:27:21;;;;;;;1.08;0.00;;;4.30;99.90;;;;;;5006031;28;20048;-66
2023/11/25 04:29:47;;;;;;;0.55;0.10;;;4.20;99.90;;;;;;5000441;28;20042;-67
2023/11/25 04:32:12;;;;;;;2.90;0.10;;;4.20;99.90;;;;;;5006304;28;20037;-67
2023/11/25 04:34:38;;;;;;;0.00;0.00;;;4.10;99.90;;;;;;5024556;28;20121;-67
2023/11/25 04:37:04;;;;;;;0.00;0.00;;;4.10;99.90;;;;;;5006985;28;20037;-67
2023/11/25 04:39:30;;;;;;;0.00;0.00;;;3.90;99.90;;;;;;5035469;28;20050;-67
2023/11/25 04:41:56;;;;;;;0.10;0.08;;;3.90;99.90;;;;;;5005768;28;20048;-67
2023/11/25 04:44:21;;;;;;;0.10;0.00;;;3.80;99.90;;;;;;5016828;28;20038;-67
2023/11/25 04:46:47;;;;;;;0.00;0.00;;;3.70;99.90;;;;;;5040987;28;20034;-67
2023/11/25 04:49:13;;;;;;;3.53;0.10;;;3.70;99.90;;;;;;4998598;28;20116;-67
2023/11/25 04:51:38;;;;;;;0.00;0.00;;;3.70;99.90;;;;;;5005687;28;20042;-67
2023/11/25 04:54:04;;;;;;;0.00;0.00;;;3.60;99.90;;;;;;5034959;28;20046;-67
2023/11/25 04:56:30;;;;;;;0.88;0.43;;;3.60;99.90;;;;;;5005330;28;20045;-67
2023/11/25 04:58:56;;;;;;;0.00;0.00;;;3.50;99.90;;;;;;5004566;28;20118;-67
2023/11/25 05:01:22;;;;;;;0.00;0.00;;;3.50;99.90;;;;;;5032574;28;20072;-67
2023/11/25 05:03:48;;;;;;;0.00;0.00;;;3.50;99.90;;;;;;5038201;28;20068;-67
2023/11/25 05:06:14;;;;;;;0.65;0.00;;;3.50;99.90;;;;;;5013619;28;20167;-67
2023/11/25 05:08:41;;;;;;;0.00;0.00;;;3.50;99.90;;;;;;5002792;28;20057;-67
2023/11/25 05:11:08;;;;;;;0.73;0.10;;;3.40;99.90;;;;;;5006981;28;20026;-66
2023/11/25 05:13:33;;;;;;;1.90;0.00;;;3.40;99.90;;;;;;5005119;28;20041;-67
2023/11/25 05:15:59;;;;;;;0.00;0.00;;;3.40;99.90;;;;;;5030947;28;20038;-67
2023/11/25 05:18:25;;;;;;;0.00;0.00;;;3.50;99.90;;;;;;5004562;28;20065;-67
2023/11/25 05:20:51;;;;;;;6.03;0.15;;;3.50;99.90;;;;;;5031300;28;20045;-67
2023/11/25 05:23:16;;;;;;;0.00;0.00;;;3.50;99.90;;;;;;5004945;28;20383;-67
2023/11/25 05:25:42;;;;;;;0.00;0.00;;;3.50;99.90;;;;;;5001477;28;20437;-67
2023/11/25 05:28:08;;;;;;;0.10;0.05;;;3.60;99.90;;;;;;5017674;28;20449;-67
2023/11/25 05:30:34;;;;;;;0.00;0.00;;;3.60;99.90;;;;;;5002262;28;20041;-67
2023/11/25 05:32:59;;;;;;;0.15;0.15;;;3.60;99.90;;;;;;5004516;28;20119;-67
2023/11/25 05:35:25;;;;;;;0.00;0.00;;;3.70;99.90;;;;;;5030143;28;20050;-69
2023/11/25 05:37:51;;;;;;;0.00;0.00;;;3.70;99.90;;;;;;5004098;28;20046;-69
2023/11/25 05:40:17;;;;;;;0.03;0.03;;;3.80;99.90;;;;;;5002372;28;20068;-69
2023/11/25 05:42:47;;;;;;;1.17;0.10;;;3.80;99.90;;;;;;5003165;28;20038;-68
2023/11/25 05:45:13;;;;;;;1.25;0.20;;;3.80;99.90;;;;;;4997351;28;20593;-69
2023/11/25 05:47:39;;;;;;;0.43;0.00;;;3.90;99.90;;;;;;5000944;28;20078;-67
2023/11/25 05:50:06;;;;;;;2.75;0.70;;;3.90;99.90;;;;;;5032245;28;20037;-67
2023/11/25 05:52:32;;;;;;;1.75;0.05;;;3.90;99.90;;;;;;5005008;28;20104;-68
2023/11/25 05:54:58;;;;;;;0.00;0.00;;;4.00;99.90;;;;;;4998987;28;20030;-68
2023/11/25 05:57:24;;;;;;;0.00;0.00;;;4.10;99.90;;;;;;4999631;28;20041;-67
2023/11/25 05:59:50;;;;;;;0.63;0.30;;;4.10;99.90;;;;;;5038746;28;20040;-67
2023/11/25 06:02:16;;;;;;;0.45;0.00;;;4.20;99.90;;;;;;5033703;28;20042;-67
2023/11/25 06:04:42;;;;;;;3.65;0.20;;;4.10;99.90;;;;;;5029047;28;20487;-67
2023/11/25 06:07:07;;;;;;;0.43;0.10;;;4.10;99.90;;;;;;5003675;28;20313;-67
2023/11/25 06:09:33;;;;;;;0.10;0.10;;;4.00;99.90;;;;;;5003125;28;20454;-66
2023/11/25 06:11:59;;;;;;;0.00;0.00;;;4.00;99.90;;;;;;5005517;28;20117;-66
2023/11/25 06:14:25;;;;;;;0.00;0.00;;;3.90;99.90;;;;;;5003574;28;20042;-66
2023/11/25 06:16:56;;;;;;;0.17;0.00;;;3.90;99.90;;;;;;5005267;28;20053;-66
2023/11/25 06:19:23;;;;;;;0.00;0.00;;;3.80;99.90;;;;;;4996010;28;20449;-66
2023/11/25 06:21:49;;;;;;;0.47;0.13;;;3.80;99.90;;;;;;5001013;28;20041;-66
2023/11/25 06:24:15;;;;;;;0.10;0.10;;;3.70;99.90;;;;;;5000072;28;20117;-66
2023/11/25 06:26:41;;;;;;;0.85;0.10;;;3.70;99.90;;;;;;5001839;28;20371;-66
2023/11/25 06:29:07;;;;;;;0.00;0.00;;;3.60;99.90;;;;;;5002943;28;20512;-66
2023/11/25 06:31:35;;;;;;;1.35;0.32;;;3.60;99.90;;;;;;5001154;28;20077;-66
2023/11/25 06:34:01;;;;;;;0.00;0.00;;;3.70;99.90;;;;;;5002987;28;20045;-66
2023/11/25 06:36:27;;;;;;;0.00;0.00;;;3.60;99.90;;;;;;5003214;28;20044;-66
2023/11/25 06:38:53;;;;;;;0.13;0.10;;;3.70;99.90;;;;;;5002301;28;20038;-66
2023/11/25 06:41:23;;;;;;;0.20;0.10;;;3.70;99.90;;;;;;5004058;28;20406;-66
2023/11/25 06:43:49;;;;;;;0.22;0.10;;;3.80;99.90;;;;;;4994558;28;20046;-66
2023/11/25 06:46:15;;;;;;;1.00;0.47;;;3.80;99.90;;;;;;5002083;28;20043;-66
2023/11/25 06:48:41;;;;;;;0.35;0.17;;;3.80;99.90;;;;;;5004786;28;20034;-66
2023/11/25 06:51:07;;;;;;;0.00;0.00;;;3.90;99.90;;;;;;5001469;28;20461;-66
2023/11/25 06:53:33;;;;;;;0.00;0.00;;;3.90;99.90;;;;;;4999033;28;20064;-66
2023/11/25 06:55:59;;;;;;;0.00;0.00;;;4.00;99.90;;;;;;5002393;28;20092;-65
2023/11/25 06:58:25;;;;;;;0.00;0.00;;;4.00;99.90;;;;;;5037182;28;20053;-66
2023/11/25 07:00:51;;;;;;;0.00;0.00;;;4.00;99.90;;;;;;5027208;28;20052;-66
2023/11/25 07:03:17;;;;;;;0.00;0.00;;;4.00;99.90;;;;;;5004053;28;20482;-66
2023/11/25 07:05:42;;;;;;;0.00;0.00;;;4.00;99.90;;;;;;5008105;28;20053;-66
2023/11/25 07:08:09;;;;;;;0.00;0.00;;;4.00;99.90;;;;;;5007833;28;20439;-65
2023/11/25 07:10:35;;;;;;;0.00;0.00;;;3.90;99.90;;;;;;5008373;28;20058;-66
2023/11/25 07:13:05;;;;;;;0.00;0.00;;;3.90;99.90;;;;;;5004596;28;20056;-65
2023/11/25 07:15:31;;;;;;;4.85;0.65;;;3.80;99.90;;;;;;5011160;28;20955;-65
2023/11/25 07:17:57;;;;;;;0.17;0.10;;;3.70;99.90;;;;;;5008351;28;20034;-66
2023/11/25 07:20:23;;;;;;;0.13;0.13;;;3.70;99.90;;;;;;5005767;28;20531;-66
2023/11/25 07:22:48;;;;;;;0.10;0.00;;;3.70;99.90;;;;;;5012303;28;20030;-66
2023/11/25 07:25:15;;;;;;;0.00;0.00;;;3.70;99.90;;;;;;5012763;28;20099;-66
2023/11/25 07:27:47;;;;;;;0.05;0.00;;;3.70;99.90;;;;;;5009594;28;20037;-66
2023/11/25 07:30:15;;;;;;;6.63;0.52;;;3.80;99.90;;;;;;5038250;28;20042;-66
2023/11/25 07:32:43;;;;;;;0.20;0.00;;;3.80;99.90;;;;;;5006066;28;20100;-66
2023/11/25 07:35:10;;;;;;;0.65;0.20;;;3.90;99.90;;;;;;5007799;28;20037;-66
2023/11/25 07:37:39;;;;;;;0.00;0.00;;;4.00;99.90;;;;;;5042824;28;20129;-66
2023/11/25 07:40:12;;;;;;;11.88;8.25;;;4.10;99.90;;;;;;4997785;28;20041;-66
2023/11/25 07:42:38;;;;;;;0.90;0.25;;;4.20;99.90;;;;;;5038984;28;20046;-66
2023/11/25 07:45:09;;;;;;;1.67;0.20;;;4.20;99.90;;;;;;5005418;28;20038;-66
2023/11/25 07:47:35;;;;;;;2.85;0.35;;;4.30;99.90;;;;;;5005225;28;20050;-66
2023/11/25 07:50:01;;;;;;;0.08;0.05;;;4.30;99.90;;;;;;4997243;28;20085;-67
2023/11/25 07:52:27;;;;;;;2.05;0.30;;;4.40;99.90;;;;;;4996680;28;20061;-68
2023/11/25 07:54:53;;;;;;;0.98;0.22;;;4.40;99.90;;;;;;5032875;28;20046;-68
2023/11/25 07:57:19;;;;;;;0.00;0.00;;;4.60;99.90;;;;;;5030677;28;20044;-68
2023/11/25 07:59:45;;;;;;;4.40;0.43;;;4.70;99.90;;;;;;5004055;28;20505;-68
2023/11/25 08:02:10;;;;;;;3.42;0.52;;;4.80;99.90;;;;;;5039105;28;20046;-67
2023/11/25 08:04:36;;;;;;;12.52;1.23;;;4.90;99.90;;;;;;5036603;28;21140;-67
2023/11/25 08:07:02;;;;;;;2.75;0.40;;;5.00;99.90;;;;;;5005579;28;20121;-68
2023/11/25 08:09:28;;;;;;;0.32;0.00;;;5.10;99.90;;;;;;5001747;28;20492;-68
2023/11/25 08:11:55;;;;;;;2.17;0.55;;;5.10;99.90;;;;;;5011281;28;20475;-67
2023/11/25 08:14:21;;;;;;;0.95;0.47;;;5.20;99.90;;;;;;5008519;28;20045;-67
2023/11/25 08:17:21;;;;;;;0.25;0.25;;;5.30;99.90;;;;;;5004295;28;20103;-67
2023/11/25 08:19:47;;;;;;;0.10;0.10;;;5.30;99.90;;;;;;5037919;28;20049;-67
2023/11/25 08:22:12;;;;;;;2.63;0.10;;;5.40;99.90;;;;;;5008032;28;20045;-67
2023/11/25 08:24:38;;;;;;;1.65;0.13;;;5.40;99.90;;;;;;5008582;28;20054;-67
2023/11/25 08:27:04;;;;;;;0.00;0.00;;;5.40;99.90;;;;;;5009937;28;20044;-67
2023/11/25 08:29:30;;;;;;;4.05;0.57;;;5.40;99.90;;;;;;5008142;28;20041;-66
2023/11/25 08:31:56;;;;;;;1.65;0.32;;;5.40;99.90;;;;;;5006272;28;20419;-66
2023/11/25 08:34:21;;;;;;;1.50;0.15;;;5.40;99.90;;;;;;5003674;28;20041;-66
2023/11/25 08:36:54;;;;;;;0.32;0.10;;;5.50;99.90;;;;;;5036792;28;20042;-66
2023/11/25 08:39:26;;;;;;;0.55;0.25;;;5.60;99.90;;;;;;5038678;28;20137;-66
2023/11/25 08:41:57;;;;;;;1.80;0.55;;;5.70;99.90;;;;;;5008426;28;20048;-66
2023/11/25 08:44:23;;;;;;;0.10;0.10;;;5.70;99.90;;;;;;5005045;28;20034;-67
2023/11/25 08:46:51;;;;;;;0.35;0.10;;;5.70;99.90;;;;;;5038779;28;20057;-66
2023/11/25 08:49:21;;;;;;;3.30;0.05;;;5.80;99.90;;;;;;5004392;28;20037;-67
2023/11/25 08:51:49;;;;;;;3.53;0.20;;;5.80;99.90;;;;;;5010244;28;20501;-67
2023/11/25 08:54:17;;;;;;;0.28;0.10;;;5.80;99.90;;;;;;5009117;28;20038;-66
2023/11/25 08:56:46;;;;;;;1.55;0.20;;;5.80;99.90;;;;;;5007378;28;20108;-66
2023/11/25 08:59:20;;;;;;;0.40;0.40;;;5.80;99.90;;;;;;5008480;28;20510;-66
2023/11/25 09:01:47;;;;;;;0.53;0.07;;;5.70;99.90;;;;;;5009141;28;20140;-66
2023/11/25 09:04:19;;;;;;;3.88;0.45;;;5.70;99.90;;;;;;5009049;28;20073;-66
2023/11/25 09:06:46;;;;;;;3.70;0.08;;;5.70;99.90;;;;;;5007292;28;20042;-66
2023/11/25 09:09:13;;;;;;;4.53;0.55;;;5.80;99.90;;;;;;5003351;28;20042;-66
2023/11/25 09:11:39;;;;;;;1.75;0.55;;;5.70;99.90;;;;;;5008896;28;20446;-66
2023/11/25 09:14:06;;;;;;;4.82;0.10;;;5.70;99.90;;;;;;5000849;28;20038;-67
2023/11/25 09:16:32;;;;;;;0.70;0.28;;;5.70;99.90;;;;;;5005973;28;20042;-69
2023/11/25 09:18:58;;;;;;;0.70;0.30;;;5.70;99.90;;;;;;5038856;28;20046;-68
2023/11/25 09:21:24;;;;;;;0.98;0.15;;;5.70;99.90;;;;;;5006338;28;20044;-67
2023/11/25 09:23:50;;;;;;;0.10;0.08;;;5.70;99.90;;;;;;5039905;28;20580;-67
2023/11/25 09:26:16;;;;;;;0.38;0.20;;;5.70;99.90;;;;;;5005689;28;20132;-67
2023/11/25 09:28:42;;;;;;;11.13;0.45;;;5.60;99.90;;;;;;5039696;28;20038;-66
2023/11/25 09:31:08;;;;;;;0.13;0.13;;;5.80;99.90;;;;;;5037178;28;20068;-67
2023/11/25 09:33:33;;;;;;;1.35;0.10;;;5.80;99.90;;;;;;5034219;28;20117;-67
2023/11/25 09:35:59;;;;;;;0.00;0.00;;;5.90;99.90;;;;;;5039302;28;20069;-66
2023/11/25 09:38:26;;;;;;;0.70;0.15;;;5.90;99.90;;;;;;5034603;28;20089;-66
2023/11/25 09:40:52;;;;;;;0.00;0.00;;;6.00;99.90;;;;;;5001987;28;20080;-66
2023/11/25 09:43:21;;;;;;;1.05;0.68;;;6.10;99.90;;;;;;5002576;28;20037;-66
2023/11/25 09:45:48;;;;;;;5.07;0.35;;;6.30;99.90;;;;;;4998561;28;20435;-66
2023/11/25 09:48:14;;;;;;;5.15;0.43;;;6.40;99.90;;;;;;5004469;28;20029;-66
2023/11/25 09:50:39;;;;;;;1.00;0.32;;;6.60;99.90;;;;;;5009205;28;20038;-66
2023/11/25 09:53:12;;;;;;;1.10;0.17;;;6.70;99.90;;;;;;5036531;28;20045;-66
2023/11/25 09:55:38;;;;;;;9.05;3.38;;;6.70;99.90;;;;;;5039117;28;20050;-67
2023/11/25 09:58:08;;;;;;;0.45;0.32;;;6.70;99.90;;;;;;5010568;28;20486;-67
2023/11/25 10:00:37;;;;;;;0.00;0.00;;;6.60;99.90;;;;;;5007750;28;20112;-66
2023/11/25 10:03:07;;;;;;;0.63;0.10;;;6.70;99.90;;;;;;5011401;28;20121;-66
2023/11/25 10:05:33;;;;;;;0.65;0.15;;;6.70;99.90;;;;;;5010729;28;20402;-66
2023/11/25 10:07:58;;;;;;;0.00;0.00;;;6.70;99.90;;;;;;5005747;28;20120;-66
2023/11/25 10:10:28;;;;;;;3.42;0.15;;;6.80;99.90;;;;;;5036554;28;20483;-66
2023/11/25 10:12:54;;;;;;;0.55;0.08;;;6.80;99.90;;;;;;5036119;28;20053;-66
2023/11/25 10:15:22;;;;;;;0.52;0.00;;;6.80;99.90;;;;;;5003430;28;20037;-66
2023/11/25 10:17:51;;;;;;;0.17;0.10;;;6.90;99.90;;;;;;5003650;28;20440;-67
2023/11/25 10:20:20;;;;;;;0.57;0.20;;;6.90;99.90;;;;;;5002566;28;20053;-66
2023/11/25 10:22:46;;;;;;;0.15;0.00;;;6.80;99.90;;;;;;4998279;28;20060;-65
2023/11/25 10:25:12;;;;;;;1.13;0.00;;;6.80;99.90;;;;;;5000107;28;20108;-66
2023/11/25 10:27:38;;;;;;;0.38;0.00;;;6.70;99.90;;;;;;5003205;28;20108;-66
2023/11/25 10:30:08;;;;;;;2.55;0.22;;;6.80;99.90;;;;;;5000861;28;20044;-66
2023/11/25 10:32:34;;;;;;;1.17;0.03;;;6.80;99.90;;;;;;5030320;28;20082;-66
2023/11/25 10:35:00;;;;;;;3.22;0.10;;;6.80;99.90;;;;;;4997213;28;20092;-66
2023/11/25 10:37:26;;;;;;;0.10;0.10;;;6.90;99.90;;;;;;5002594;28;20049;-66
2023/11/25 10:39:52;;;;;;;0.00;0.00;;;6.90;99.90;;;;;;4998217;28;20536;-66
2023/11/25 10:42:19;;;;;;;2.50;0.50;;;7.10;99.90;;;;;;4996227;28;20034;-66
2023/11/25 10:44:48;;;;;;;5.93;0.30;;;7.20;99.90;;;;;;5001277;28;20566;-66
2023/11/25 10:47:33;;;;;;;2.95;2.35;;;7.40;99.90;;;;;;4999452;28;20117;-65
2023/11/25 10:50:03;;;;;;;2.33;1.05;;;7.40;99.90;;;;;;4997763;28;20295;-66
2023/11/25 10:52:32;;;;;;;0.00;0.00;;;7.40;99.90;;;;;;4998266;28;20524;-66
2023/11/25 10:54:59;;;;;;;0.30;0.00;;;7.40;99.90;;;;;;5003805;28;20048;-66
2023/11/25 10:57:26;;;;;;;2.30;0.25;;;7.30;99.90;;;;;;5006013;28;20026;-66
2023/11/25 10:59:57;;;;;;;0.52;0.22;;;7.20;99.90;;;;;;4999552;28;20462;-66
2023/11/25 11:02:44;;;;;;;1.65;0.20;;;7.20;99.90;;;;;;4999704;28;20046;-66
2023/11/25 11:05:10;;;;;;;0.00;0.00;;;7.20;99.90;;;;;;5002467;28;20041;-66
2023/11/25 11:07:48;;;;;;;1.45;0.10;;;7.30;99.90;;;;;;5003251;28;20482;-66
2023/11/25 11:10:25;;;;;;;0.55;0.00;;;7.40;99.90;;;;;;4962312;28;1118626;-66
2023/11/25 11:13:02;;;;;;;0.75;0.22;;;7.50;99.90;;;;;;5005904;28;20108;-66
2023/11/25 11:15:31;;;;;;;0.70;0.20;;;7.40;99.90;;;;;;5002247;28;20538;-66
2023/11/25 11:18:08;;;;;;;0.20;0.00;;;7.40;99.90;;;;;;4999930;28;20042;-66
2023/11/25 11:20:41;;;;;;;3.30;0.20;;;7.50;99.90;;;;;;4996782;28;20445;-66
2023/11/25 11:23:06;;;;;;;1.20;0.05;;;7.60;99.90;;;;;;5001649;28;20046;-67
2023/11/25 11:25:38;;;;;;;0.28;0.10;;;7.70;99.90;;;;;;5004104;28;20050;-66
2023/11/25 11:28:13;;;;;;;0.40;0.40;;;7.80;99.90;;;;;;5000216;28;20054;-66
2023/11/25 11:30:50;;;;;;;0.20;0.10;;;7.90;99.90;;;;;;5003129;28;20042;-66
2023/11/25 11:33:16;;;;;;;16.83;8.50;;;8.00;99.90;;;;;;5002992;28;20506;-67
2023/11/25 11:35:43;;;;;;;1.15;0.32;;;8.00;99.90;;;;;;5006191;28;20398;-67
2023/11/25 11:38:28;;;;;;;1.10;0.15;;;8.10;99.90;;;;;;5002690;28;20040;-66
2023/11/25 11:41:06;;;;;;;1.42;0.43;;;8.20;99.90;;;;;;5004640;28;20046;-66
2023/11/25 11:43:32;;;;;;;6.05;0.57;;;8.30;99.90;;;;;;5006320;28;20453;-67
2023/11/25 11:45:58;;;;;;;0.10;0.10;;;8.30;99.90;;;;;;5001313;28;20468;-67
2023/11/25 11:48:26;;;;;;;1.55;0.45;;;8.30;99.90;;;;;;5012596;28;20155;-66
2023/11/25 11:50:54;;;;;;;2.45;0.73;;;8.30;99.90;;;;;;5037490;28;20049;-67
2023/11/25 11:53:21;;;;;;;1.83;0.20;;;8.40;99.90;;;;;;5041779;28;20049;-67
2023/11/25 11:55:57;;;;;;;0.00;0.00;;;8.40;99.90;;;;;;5008371;28;20128;-67
2023/11/25 11:58:25;;;;;;;7.47;0.73;;;8.40;99.90;;;;;;5040978;28;20057;-67
2023/11/25 12:01:01;;;;;;;7.65;0.93;;;8.30;99.90;;;;;;5004407;28;20050;-67
2023/11/25 12:03:27;;;;;;;0.80;0.10;;;8.20;99.90;;;;;;5008694;28;20049;-67
2023/11/25 12:05:53;;;;;;;2.50;0.52;;;8.20;99.90;;;;;;4997694;28;20042;-67
2023/11/25 12:08:20;;;;;;;4.55;0.30;;;8.10;99.90;;;;;;5000389;28;20057;-67
2023/11/25 12:10:47;;;;;;;2.60;0.40;;;8.00;99.90;;;;;;5036901;28;20061;-66
2023/11/25 12:13:27;;;;;;;0.00;0.00;;;8.00;99.90;;;;;;5008097;28;20038;-67
2023/11/25 12:16:01;;;;;;;1.25;0.43;;;7.90;99.90;;;;;;4996137;28;20046;-67
2023/11/25 12:18:32;;;;;;;3.72;0.52;;;7.80;99.90;;;;;;5006057;28;20046;-67
2023/11/25 12:21:01;;;;;;;2.65;0.22;;;7.80;99.90;;;;;;5003229;28;20128;-67
2023/11/25 12:23:28;;;;;;;0.00;0.00;;;7.80;99.90;;;;;;5005196;28;20095;-67
2023/11/25 12:25:56;;;;;;;1.40;0.17;;;7.80;99.90;;;;;;5043523;28;20037;-67
2023/11/25 12:28:23;;;;;;;0.32;0.08;;;7.80;99.90;;;;;;5008670;28;20065;-67
2023/11/25 12:30:50;;;;;;;1.70;0.13;;;7.90;99.90;;;;;;5006209;28;20042;-67
2023/11/25 12:33:19;;;;;;;1.27;0.20;;;7.80;99.90;;;;;;5001090;28;20104;-67
2023/11/25 12:35:45;;;;;;;3.47;0.90;;;7.70;99.90;;;;;;5006267;28;20113;-67
2023/11/25 12:38:13;;;;;;;0.00;0.00;;;7.90;99.90;;;;;;5004798;28;20049;-67
2023/11/25 12:40:39;;;;;;;1.08;0.30;;;8.00;99.90;;;;;;5004518;28;20050;-67
2023/11/25 12:43:06;;;;;;;0.52;0.38;;;8.20;99.90;;;;;;5007188;28;20124;-67
2023/11/25 12:45:43;;;;;;;1.13;0.17;;;8.10;99.90;;;;;;5030756;28;20050;-67
2023/11/25 12:48:12;;;;;;;1.95;0.15;;;8.00;99.90;;;;;;5031874;28;20046;-67
2023/11/25 12:50:57;;;;;;;0.17;0.10;;;7.70;99.90;;;;;;5034855;28;20034;-67
2023/11/25 12:53:24;;;;;;;0.20;0.08;;;7.50;99.90;;;;;;5005496;28;20564;-68
2023/11/25 12:55:50;;;;;;;0.95;0.38;;;7.20;99.90;;;;;;5002819;28;20050;-69